createdAt,value
2023-03-03T00:03:09.997Z,100507.44
2023-03-03T00:08:14.215Z,100515.19
2023-03-03T00:13:19.696Z,100514.41
2023-03-03T00:18:25.371Z,100524.97
2023-03-03T00:23:40.411Z,100516.34
2023-03-03T00:28:46.758Z,100524.94
2023-03-03T00:33:50.577Z,100522.25
2023-03-03T00:38:51.955Z,100526.41
2023-03-03T00:43:53.529Z,100533.72
2023-03-03T00:48:54.903Z,100524.78
2023-03-03T00:53:56.709Z,100526.75
2023-03-03T00:58:58.088Z,100534.81
2023-03-03T01:03:59.496Z,100536.59
2023-03-03T01:09:00.863Z,100530.00
2023-03-03T01:14:02.291Z,100543.97
2023-03-03T01:19:03.718Z,100534.00
2023-03-03T01:24:05.142Z,100545.88
2023-03-03T01:29:06.564Z,100538.84
2023-03-03T01:34:07.966Z,100536.59
2023-03-03T01:39:10.772Z,100534.81
2023-03-03T01:44:14.435Z,100533.72
2023-03-03T01:49:29.206Z,100540.56
2023-03-03T01:54:33.796Z,100535.41
2023-03-03T01:59:36.712Z,100517.16
2023-03-03T02:04:38.140Z,100526.34
2023-03-03T02:10:01.460Z,100509.00
2023-03-03T02:15:16.018Z,100524.94
2023-03-03T02:20:32.337Z,100520.19
2023-03-03T02:25:58.839Z,100523.16
2023-03-03T02:31:01.094Z,100530.41
2023-03-03T02:36:02.469Z,100522.91
2023-03-03T02:41:34.729Z,100518.19
2023-03-03T02:46:37.873Z,100518.38
2023-03-03T02:51:39.272Z,100524.94
2023-03-03T02:56:40.651Z,100522.56
2023-03-03T03:01:42.204Z,100516.78
2023-03-03T03:06:44.000Z,100533.63
2023-03-03T03:11:45.480Z,100541.53
2023-03-03T03:16:46.909Z,100542.75
2023-03-03T03:21:48.345Z,100536.13
2023-03-03T03:26:49.731Z,100539.69
2023-03-03T03:31:51.125Z,100545.03
2023-03-03T03:36:52.522Z,100540.50
2023-03-03T03:41:53.902Z,100531.75
2023-03-03T03:46:55.308Z,100530.19
2023-03-03T03:51:56.742Z,100531.06
2023-03-03T03:56:58.144Z,100535.84
2023-03-03T04:01:59.569Z,100532.78
2023-03-03T04:07:01.026Z,100545.75
2023-03-03T04:12:02.439Z,100555.13
2023-03-03T04:17:03.800Z,100560.31
2023-03-03T04:22:06.889Z,100564.03
2023-03-03T04:27:11.550Z,100548.34
2023-03-03T04:32:12.964Z,100564.25
2023-03-03T04:37:14.364Z,100575.31
2023-03-03T04:42:15.736Z,100573.09
2023-03-03T04:47:17.154Z,100577.75
2023-03-03T04:52:18.526Z,100581.09
2023-03-03T04:57:19.917Z,100583.47
2023-03-03T05:02:21.277Z,100573.81
2023-03-03T05:07:22.736Z,100589.16
2023-03-03T05:12:24.120Z,100581.72
2023-03-03T05:17:25.500Z,100583.63
2023-03-03T05:22:27.139Z,100581.75
2023-03-03T05:27:28.525Z,100562.63
2023-03-03T05:32:29.968Z,100579.25
2023-03-03T05:37:31.407Z,100585.44
2023-03-03T05:42:32.912Z,100570.34
2023-03-03T05:47:34.324Z,100587.75
2023-03-03T05:52:35.715Z,100583.09
2023-03-03T05:57:37.102Z,100587.09
2023-03-03T06:02:38.478Z,100584.72
2023-03-03T06:07:39.909Z,100576.44
2023-03-03T06:12:42.096Z,100574.56
2023-03-03T06:17:43.509Z,100569.91
2023-03-03T06:22:44.899Z,100574.63
2023-03-03T06:27:46.301Z,100576.00
2023-03-03T06:32:47.851Z,100578.47
2023-03-03T06:37:50.677Z,100587.97
2023-03-03T06:42:52.087Z,100605.22
2023-03-03T06:47:53.518Z,100618.81
2023-03-03T06:53:08.027Z,100620.72
2023-03-03T06:58:14.818Z,100608.63
2023-03-03T07:03:17.912Z,100618.13
2023-03-03T07:08:20.547Z,100626.84
2023-03-03T07:13:26.664Z,100633.53
2023-03-03T07:18:53.456Z,100622.31
2023-03-03T07:23:54.846Z,100632.19
2023-03-03T07:29:00.729Z,100619.72
2023-03-03T07:34:02.488Z,100641.22
2023-03-03T07:39:13.420Z,100654.19
2023-03-03T07:44:21.720Z,100659.78
2023-03-03T07:49:23.722Z,100668.50
2023-03-03T07:54:42.243Z,100664.59
2023-03-03T08:00:02.864Z,100647.91
2023-03-03T08:05:29.984Z,100652.34
2023-03-03T08:10:31.985Z,100655.34
2023-03-03T08:15:33.425Z,100653.59
2023-03-03T08:20:34.689Z,100660.50
2023-03-03T08:25:36.080Z,100654.59
2023-03-03T08:30:37.539Z,100659.69
2023-03-03T08:35:38.949Z,100661.50
2023-03-03T08:40:40.444Z,100651.38
2023-03-03T08:45:41.814Z,100658.16
2023-03-03T08:50:43.352Z,100667.56
2023-03-03T08:55:47.687Z,100679.06
2023-03-03T09:00:51.208Z,100666.97
2023-03-03T09:05:54.011Z,100669.44
2023-03-03T09:10:55.435Z,100669.91
2023-03-03T09:15:58.224Z,100680.84
2023-03-03T09:20:59.634Z,100677.19
2023-03-03T09:26:28.041Z,100687.59
2023-03-03T09:31:41.808Z,100688.34
2023-03-03T09:36:43.201Z,100695.50
2023-03-03T09:42:03.338Z,100704.00
2023-03-03T09:47:23.634Z,100710.91
2023-03-03T09:52:51.098Z,100719.25
2023-03-03T09:58:13.980Z,100723.34
2023-03-03T10:03:34.118Z,100722.09
2023-03-03T10:08:53.674Z,100703.25
2023-03-03T10:14:14.227Z,100706.75
2023-03-03T10:19:46.446Z,100718.91
2023-03-03T10:25:04.746Z,100731.78
2023-03-03T10:30:41.054Z,100730.53
2023-03-03T10:36:06.321Z,100725.94
2023-03-03T10:41:18.435Z,100721.41
2023-03-03T10:46:29.088Z,100725.91
2023-03-03T10:51:43.444Z,100725.06
2023-03-03T10:57:08.584Z,100730.38
2023-03-03T11:02:26.906Z,100726.66
2023-03-03T11:07:44.849Z,100726.38
2023-03-03T11:13:15.057Z,100726.88
2023-03-03T11:18:42.318Z,100721.84
2023-03-03T11:24:05.719Z,100709.88
2023-03-03T11:29:39.506Z,100713.66
2023-03-03T11:34:57.979Z,100711.69
2023-03-03T11:40:02.262Z,100701.19
2023-03-03T11:45:11.021Z,100699.81
2023-03-03T11:50:20.593Z,100703.84
2023-03-03T11:55:27.185Z,100695.66
2023-03-03T12:00:52.225Z,100697.47
2023-03-03T12:06:25.013Z,100696.19
2023-03-03T12:11:32.353Z,100695.59
2023-03-03T12:16:49.979Z,100694.53
2023-03-03T12:21:58.251Z,100686.63
2023-03-03T12:27:18.922Z,100679.38
2023-03-03T12:32:33.050Z,100671.50
2023-03-03T12:38:05.414Z,100673.66
2023-03-03T12:43:27.868Z,100664.13
2023-03-03T12:48:43.224Z,100660.38
2023-03-03T12:54:03.260Z,100659.69
2023-03-03T12:59:25.444Z,100649.84
2023-03-03T13:04:35.020Z,100648.69
2023-03-03T13:10:05.543Z,100653.16
2023-03-03T13:16:06.158Z,100659.13
2023-03-03T13:21:24.215Z,100658.88
2023-03-03T13:27:15.100Z,100656.84
2023-03-03T13:32:23.611Z,100652.13
2023-03-03T13:37:31.241Z,100647.84
2023-03-03T13:42:43.570Z,100642.03
2023-03-03T13:47:59.994Z,100641.69
2023-03-03T13:53:13.409Z,100641.69
2023-03-03T13:58:40.846Z,100635.34
2023-03-03T14:03:51.158Z,100628.75
2023-03-03T14:09:10.703Z,100629.22
2023-03-03T14:14:36.200Z,100619.53
2023-03-03T14:19:42.905Z,100621.75
2023-03-03T14:25:06.791Z,100609.19
2023-03-03T14:30:36.202Z,100606.31
2023-03-03T14:35:39.486Z,100602.63
2023-03-03T14:40:45.354Z,100604.44
2023-03-03T14:45:46.863Z,100602.88
2023-03-03T14:50:58.874Z,100597.19
2023-03-03T14:56:15.052Z,100592.06
2023-03-03T15:01:32.928Z,100593.31
2023-03-03T15:06:40.627Z,100585.41
2023-03-03T15:11:42.016Z,100587.09
2023-03-03T15:16:44.874Z,100592.66
2023-03-03T15:22:07.547Z,100590.72
2023-03-03T15:27:21.382Z,100590.84
2023-03-03T15:32:34.444Z,100585.50
2023-03-03T15:37:42.206Z,100580.88
2023-03-03T15:42:50.385Z,100589.63
2023-03-03T15:48:19.569Z,100586.97
2023-03-03T15:53:58.101Z,100587.03
2023-03-03T15:59:25.227Z,100592.88
2023-03-03T16:04:29.435Z,100598.19
2023-03-03T16:09:51.894Z,100594.34
2023-03-03T16:15:26.320Z,100585.25
2023-03-03T16:20:33.350Z,100590.59
2023-03-03T16:25:49.757Z,100587.72
2023-03-03T16:31:10.392Z,100590.94
2023-03-03T16:36:21.031Z,100594.28
2023-03-03T16:41:29.409Z,100592.28
2023-03-03T16:46:44.827Z,100596.44
2023-03-03T16:51:52.960Z,100595.34
2023-03-03T16:57:28.322Z,100589.47
2023-03-03T17:02:38.742Z,100592.59
2023-03-03T17:07:39.994Z,100595.25
2023-03-03T17:13:04.245Z,100588.34
2023-03-03T17:18:05.455Z,100590.16
2023-03-03T17:23:28.275Z,100595.41
2023-03-03T17:28:59.846Z,100588.56
2023-03-03T17:34:19.631Z,100602.13
2023-03-03T17:39:45.006Z,100595.00
2023-03-03T17:44:58.606Z,100605.03
2023-03-03T17:50:14.965Z,100606.97
2023-03-03T17:55:37.132Z,100600.03
2023-03-03T18:00:43.556Z,100606.06
2023-03-03T18:06:04.248Z,100607.59
2023-03-03T18:11:35.080Z,100604.16
2023-03-03T18:17:07.857Z,100606.06
2023-03-03T18:22:22.352Z,100600.28
2023-03-03T18:27:23.568Z,100598.53
2023-03-03T18:32:24.998Z,100600.81
2023-03-03T18:37:39.167Z,100600.81
2023-03-03T18:42:41.563Z,100607.44
2023-03-03T18:48:01.319Z,100609.41
2023-03-03T18:53:27.316Z,100609.94
2023-03-03T18:58:41.166Z,100617.47
2023-03-03T19:03:46.889Z,100604.25
2023-03-03T19:08:56.777Z,100603.72
2023-03-03T19:14:16.927Z,100611.03
2023-03-03T19:19:38.972Z,100605.09
2023-03-03T19:24:40.346Z,100612.66
2023-03-03T19:29:53.959Z,100614.88
2023-03-03T19:35:17.531Z,100607.38
2023-03-03T19:40:41.888Z,100598.88
2023-03-03T19:45:57.486Z,100610.19
2023-03-03T19:51:06.046Z,100600.63
2023-03-03T19:56:40.123Z,100598.47
2023-03-03T20:01:57.131Z,100597.19
2023-03-03T20:07:23.899Z,100591.03
2023-03-03T20:12:53.982Z,100606.94
2023-03-03T20:18:02.859Z,100600.63
2023-03-03T20:23:38.423Z,100591.03
2023-03-03T20:28:45.755Z,100589.94
2023-03-03T20:33:52.468Z,100587.78
2023-03-03T20:39:10.266Z,100583.84
2023-03-03T20:44:22.032Z,100576.16
2023-03-03T20:49:47.097Z,100575.09
2023-03-03T20:55:19.326Z,100576.84
2023-03-03T21:00:22.700Z,100566.25
2023-03-03T21:05:24.144Z,100567.22
2023-03-03T21:10:27.188Z,100570.47
2023-03-03T21:15:36.667Z,100566.06
2023-03-03T21:20:38.139Z,100552.59
2023-03-03T21:25:57.975Z,100558.19
2023-03-03T21:31:15.593Z,100549.66
2023-03-03T21:36:32.283Z,100553.44
2023-03-03T21:41:50.786Z,100546.66
2023-03-03T21:46:52.177Z,100541.41
2023-03-03T21:51:54.563Z,100545.72
2023-03-03T21:56:55.973Z,100543.13
2023-03-03T22:01:57.390Z,100542.38
2023-03-03T22:06:58.783Z,100539.72
2023-03-03T22:12:00.159Z,100532.03
2023-03-03T22:17:01.670Z,100535.41
2023-03-03T22:22:03.045Z,100543.34
2023-03-03T22:27:04.517Z,100525.84
2023-03-03T22:32:06.057Z,100528.72
2023-03-03T22:37:07.654Z,100525.31
2023-03-03T22:42:10.047Z,100512.69
2023-03-03T22:47:11.580Z,100522.06
2023-03-03T22:52:13.005Z,100510.28
2023-03-03T22:57:14.385Z,100514.00
2023-03-03T23:02:15.772Z,100511.84
2023-03-03T23:07:17.227Z,100502.69
2023-03-03T23:12:18.615Z,100501.25
2023-03-03T23:17:19.995Z,100485.56
2023-03-03T23:22:21.415Z,100486.19
2023-03-03T23:27:22.786Z,100482.63
2023-03-03T23:32:24.458Z,100473.91
2023-03-03T23:37:25.951Z,100469.03
2023-03-03T23:42:30.750Z,100467.75
2023-03-03T23:47:32.617Z,100468.38
2023-03-03T23:52:34.046Z,100463.06
2023-03-03T23:57:35.509Z,100461.31
